createdAt,value
2022-08-05T00:00:29.761Z,21.13
2022-08-05T00:03:22.102Z,21.07
2022-08-05T00:06:20.189Z,21.02
2022-08-05T00:09:12.823Z,20.97
2022-08-05T00:11:59.860Z,20.94
2022-08-05T00:14:42.044Z,20.94
2022-08-05T00:17:24.041Z,20.94
2022-08-05T00:20:08.233Z,20.94
2022-08-05T00:22:59.607Z,20.94
2022-08-05T00:25:45.897Z,20.94
2022-08-05T00:28:29.652Z,20.94
2022-08-05T00:31:11.893Z,20.93
2022-08-05T00:34:56.731Z,20.90
2022-08-05T00:37:12.534Z,20.87
2022-08-05T00:39:57.816Z,20.83
2022-08-05T00:42:41.722Z,20.80
2022-08-05T00:45:28.210Z,20.77
2022-08-05T00:48:31.251Z,20.74
2022-08-05T00:51:50.789Z,20.72
2022-08-05T00:54:16.922Z,20.69
2022-08-05T00:56:59.125Z,20.65
2022-08-05T00:59:44.689Z,20.61
2022-08-05T01:02:27.423Z,20.56
2022-08-05T01:05:10.010Z,20.53
2022-08-05T01:08:40.847Z,20.49
2022-08-05T01:10:59.939Z,20.46
2022-08-05T01:13:59.081Z,20.41
2022-08-05T01:16:50.354Z,20.39
2022-08-05T01:20:01.723Z,20.38
2022-08-05T01:23:01.089Z,20.37
2022-08-05T01:26:26.990Z,20.37
2022-08-05T01:29:27.403Z,20.35
2022-08-05T01:32:19.846Z,20.35
2022-08-05T01:35:10.660Z,20.34
2022-08-05T01:37:58.119Z,20.31
2022-08-05T01:40:42.841Z,20.28
2022-08-05T01:43:28.177Z,20.26
2022-08-05T01:46:16.446Z,20.23
2022-08-05T01:49:24.167Z,20.18
2022-08-05T01:52:12.394Z,20.16
2022-08-05T01:55:04.444Z,20.12
2022-08-05T01:58:11.967Z,20.09
2022-08-05T02:00:54.651Z,20.07
2022-08-05T02:03:39.235Z,20.04
2022-08-05T02:06:37.258Z,20.02
2022-08-05T02:09:21.023Z,19.97
2022-08-05T02:12:17.255Z,19.93
2022-08-05T02:15:07.445Z,19.89
2022-08-05T02:18:32.172Z,19.87
2022-08-05T02:21:15.333Z,19.83
2022-08-05T02:24:04.745Z,19.81
2022-08-05T02:26:53.824Z,19.80
2022-08-05T02:29:59.569Z,19.77
2022-08-05T02:32:43.209Z,19.76
2022-08-05T02:35:28.186Z,19.74
2022-08-05T02:38:19.462Z,19.73
2022-08-05T02:41:14.761Z,19.72
2022-08-05T02:44:06.220Z,19.70
2022-08-05T02:46:59.995Z,19.69
2022-08-05T02:49:45.050Z,19.66
2022-08-05T02:52:30.476Z,19.65
2022-08-05T02:55:14.378Z,19.64
2022-08-05T02:58:12.161Z,19.63
2022-08-05T03:00:57.119Z,19.60
2022-08-05T03:04:02.666Z,19.60
2022-08-05T03:06:54.424Z,19.59
2022-08-05T03:09:43.990Z,19.59
2022-08-05T03:12:38.762Z,19.57
2022-08-05T03:15:23.436Z,19.53
2022-08-05T03:18:06.138Z,19.50
2022-08-05T03:20:49.673Z,19.46
2022-08-05T03:23:33.925Z,19.43
2022-08-05T03:26:31.353Z,19.39
2022-08-05T03:29:17.432Z,19.36
2022-08-05T03:32:00.773Z,19.33
2022-08-05T03:34:50.741Z,19.29
2022-08-05T03:37:44.776Z,19.28
2022-08-05T03:40:31.934Z,19.26
2022-08-05T03:43:58.579Z,19.25
2022-08-05T03:46:17.390Z,19.26
2022-08-05T03:49:01.774Z,19.26
2022-08-05T03:52:50.386Z,19.28
2022-08-05T03:56:05.164Z,19.31
2022-08-05T03:58:05.595Z,19.37
2022-08-05T04:00:51.563Z,19.47
2022-08-05T04:03:38.129Z,19.55
2022-08-05T04:06:20.604Z,19.61
2022-08-05T04:09:06.344Z,19.67
2022-08-05T04:11:52.649Z,19.75
2022-08-05T04:14:36.938Z,19.83
2022-08-05T04:17:19.551Z,19.91
2022-08-05T04:20:01.552Z,19.99
2022-08-05T04:22:44.570Z,20.06
2022-08-05T04:25:57.572Z,20.11
2022-08-05T04:28:30.927Z,20.19
2022-08-05T04:31:13.706Z,20.27
2022-08-05T04:34:31.175Z,20.33
2022-08-05T04:36:57.879Z,20.39
2022-08-05T04:39:40.091Z,20.45
2022-08-05T04:42:25.526Z,20.50
2022-08-05T04:45:08.223Z,20.55
2022-08-05T04:48:07.247Z,20.60
2022-08-05T04:51:02.593Z,20.67
2022-08-05T04:53:45.909Z,20.73
2022-08-05T04:56:34.946Z,20.80
2022-08-05T04:59:24.091Z,20.89
2022-08-05T05:02:41.956Z,20.98
2022-08-05T05:05:28.269Z,21.07
2022-08-05T05:08:14.354Z,21.15
2022-08-05T05:11:08.863Z,21.23
2022-08-05T05:13:50.760Z,21.31
2022-08-05T05:16:37.363Z,21.40
2022-08-05T05:19:26.662Z,21.49
2022-08-05T05:22:23.488Z,21.59
2022-08-05T05:25:16.481Z,21.67
2022-08-05T05:27:59.792Z,21.79
2022-08-05T05:30:41.662Z,21.88
2022-08-05T05:33:24.169Z,21.98
2022-08-05T05:36:06.271Z,22.10
2022-08-05T05:38:48.166Z,22.21
2022-08-05T05:41:40.335Z,22.33
2022-08-05T05:44:35.650Z,22.44
2022-08-05T05:47:21.473Z,22.57
2022-08-05T05:50:05.294Z,22.69
2022-08-05T05:52:48.364Z,22.83
2022-08-05T05:55:51.673Z,22.99
2022-08-05T05:58:34.685Z,23.18
2022-08-05T06:01:23.436Z,23.34
2022-08-05T06:04:12.203Z,23.49
2022-08-05T06:06:54.549Z,23.62
2022-08-05T06:10:01.599Z,23.77
2022-08-05T06:12:42.112Z,23.92
2022-08-05T06:15:24.521Z,24.03
2022-08-05T06:18:31.621Z,24.17
2022-08-05T06:21:18.480Z,24.29
2022-08-05T06:24:01.892Z,24.45
2022-08-05T06:26:52.319Z,24.59
2022-08-05T06:29:49.610Z,24.74
2022-08-05T06:32:38.502Z,24.91
2022-08-05T06:36:07.066Z,25.07
2022-08-05T06:38:36.223Z,25.23
2022-08-05T06:41:19.108Z,25.41
2022-08-05T06:44:04.690Z,25.59
2022-08-05T06:46:47.611Z,25.79
2022-08-05T06:50:00.807Z,25.95
2022-08-05T06:52:37.174Z,26.18
2022-08-05T06:55:20.536Z,26.32
2022-08-05T06:58:29.238Z,26.44
2022-08-05T07:01:07.365Z,26.58
2022-08-05T07:03:49.469Z,26.75
2022-08-05T07:06:32.173Z,26.92
2022-08-05T07:09:14.181Z,27.08
2022-08-05T07:12:00.587Z,27.22
2022-08-05T07:15:01.369Z,27.37
2022-08-05T07:17:59.113Z,27.51
2022-08-05T07:20:44.826Z,27.67
2022-08-05T07:23:29.497Z,27.85
2022-08-05T07:26:13.976Z,28.02
2022-08-05T07:28:56.912Z,28.22
2022-08-05T07:31:54.590Z,28.39
2022-08-05T07:34:41.830Z,28.58
2022-08-05T07:37:24.517Z,28.72
2022-08-05T07:40:32.251Z,28.88
2022-08-05T07:43:20.855Z,29.06
2022-08-05T07:46:03.174Z,29.21
2022-08-05T07:49:02.439Z,29.30
2022-08-05T07:51:53.064Z,29.44
2022-08-05T07:54:41.189Z,29.57
2022-08-05T07:57:56.339Z,29.62
2022-08-05T08:00:31.644Z,29.65
2022-08-05T08:03:15.960Z,29.79
2022-08-05T08:05:57.987Z,29.91
2022-08-05T08:08:41.009Z,30.06
2022-08-05T08:11:27.820Z,30.25
2022-08-05T08:14:24.767Z,30.36
2022-08-05T08:17:10.964Z,30.44
2022-08-05T08:20:22.067Z,30.56
2022-08-05T08:23:03.150Z,30.69
2022-08-05T08:26:00.015Z,30.75
2022-08-05T08:28:59.429Z,30.86
2022-08-05T08:31:44.136Z,30.97
2022-08-05T08:34:30.147Z,31.04
2022-08-05T08:37:13.049Z,31.17
2022-08-05T08:40:01.141Z,31.36
2022-08-05T08:42:52.804Z,31.35
2022-08-05T08:45:37.586Z,31.40
2022-08-05T08:48:41.309Z,31.52
2022-08-05T08:52:04.359Z,31.70
2022-08-05T08:54:27.708Z,31.80
2022-08-05T08:57:11.407Z,31.80
2022-08-05T08:59:56.414Z,31.89
2022-08-05T09:02:40.869Z,31.94
2022-08-05T09:05:38.407Z,31.99
2022-08-05T09:08:26.636Z,32.11
2022-08-05T09:11:13.583Z,32.15
2022-08-05T09:14:09.886Z,32.06
2022-08-05T09:17:00.640Z,31.96
2022-08-05T09:20:01.864Z,31.86
2022-08-05T09:23:05.361Z,31.83
2022-08-05T09:26:02.518Z,31.82
2022-08-05T09:28:47.811Z,31.93
2022-08-05T09:32:51.103Z,32.11
2022-08-05T09:34:56.245Z,32.29
2022-08-05T09:38:12.237Z,32.47
2022-08-05T09:40:51.996Z,32.57
2022-08-05T09:43:41.746Z,32.65
2022-08-05T09:46:32.595Z,32.63
2022-08-05T09:49:54.478Z,32.57
2022-08-05T09:52:36.650Z,32.57
2022-08-05T09:55:57.837Z,32.64
2022-08-05T09:58:29.478Z,32.64
2022-08-05T10:01:22.662Z,32.63
2022-08-05T10:04:15.925Z,32.67
2022-08-05T10:06:59.462Z,32.69
2022-08-05T10:10:04.421Z,32.71
2022-08-05T10:13:01.217Z,32.72
2022-08-05T10:15:44.549Z,32.76
2022-08-05T10:18:33.513Z,32.72
2022-08-05T10:21:16.467Z,32.57
2022-08-05T10:24:00.655Z,32.50
2022-08-05T10:26:51.482Z,32.40
2022-08-05T10:30:41.155Z,32.26
2022-08-05T10:32:54.224Z,32.14
2022-08-05T10:35:44.114Z,32.03
2022-08-05T10:38:29.755Z,32.01
2022-08-05T10:41:46.419Z,31.97
2022-08-05T10:44:31.595Z,31.95
2022-08-05T10:47:26.938Z,31.85
2022-08-05T10:50:32.527Z,31.84
2022-08-05T10:53:51.363Z,31.85
2022-08-05T10:56:45.359Z,31.91
2022-08-05T11:00:04.429Z,31.95
2022-08-05T11:02:38.626Z,32.04
2022-08-05T11:05:29.116Z,32.14
2022-08-05T11:08:36.699Z,32.25
2022-08-05T11:11:44.813Z,32.32
2022-08-05T11:17:57.171Z,32.55
2022-08-05T11:20:48.361Z,32.84
2022-08-05T11:24:02.847Z,33.00
2022-08-05T11:26:43.202Z,33.04
2022-08-05T11:29:41.064Z,33.04
2022-08-05T11:32:28.186Z,33.04
2022-08-05T11:36:07.697Z,33.09
2022-08-05T11:38:57.812Z,33.24
2022-08-05T11:42:01.995Z,33.30
2022-08-05T11:44:53.236Z,33.32
2022-08-05T11:47:48.611Z,33.29
2022-08-05T11:50:38.651Z,33.26
2022-08-05T11:53:22.388Z,33.21
2022-08-05T11:56:04.489Z,33.22
2022-08-05T11:58:52.819Z,33.27
2022-08-05T12:01:35.878Z,33.31
2022-08-05T12:04:21.075Z,33.35
2022-08-05T12:07:09.488Z,33.46
2022-08-05T12:09:54.997Z,33.51
2022-08-05T12:12:38.288Z,33.53
2022-08-05T12:15:44.657Z,33.59
2022-08-05T12:18:38.965Z,33.55
2022-08-05T12:21:33.025Z,33.50
2022-08-05T12:24:21.680Z,33.49
2022-08-05T12:27:09.811Z,33.55
2022-08-05T12:30:09.468Z,33.63
2022-08-05T12:33:07.529Z,33.74
2022-08-05T12:36:02.680Z,33.80
2022-08-05T12:38:44.815Z,33.82
2022-08-05T12:41:35.685Z,33.81
2022-08-05T12:44:33.122Z,33.79
2022-08-05T12:47:31.174Z,33.81
2022-08-05T12:50:15.409Z,33.78
2022-08-05T12:53:00.199Z,33.77
2022-08-05T12:55:42.552Z,33.76
2022-08-05T12:58:52.342Z,33.77
2022-08-05T13:02:01.241Z,33.86
2022-08-05T13:04:41.759Z,33.86
2022-08-05T13:08:00.204Z,33.84
2022-08-05T13:10:50.170Z,33.82
2022-08-05T13:14:05.601Z,33.85
2022-08-05T13:16:48.047Z,33.89
2022-08-05T13:19:50.946Z,33.87
2022-08-05T13:22:34.717Z,33.90
2022-08-05T13:25:21.959Z,33.85
2022-08-05T13:28:05.297Z,33.85
2022-08-05T13:30:48.390Z,33.80
2022-08-05T13:34:23.461Z,33.77
2022-08-05T13:36:33.555Z,33.76
2022-08-05T13:39:24.613Z,33.75
2022-08-05T13:42:17.608Z,33.73
2022-08-05T13:45:01.041Z,33.75
2022-08-05T13:48:08.597Z,33.83
2022-08-05T13:50:45.004Z,33.96
2022-08-05T13:53:29.458Z,34.06
2022-08-05T13:56:18.799Z,34.13
2022-08-05T13:59:05.955Z,34.18
2022-08-05T14:02:03.205Z,34.16
2022-08-05T14:05:05.785Z,34.18
2022-08-05T14:08:03.015Z,34.15
2022-08-05T14:10:50.618Z,34.11
2022-08-05T14:13:32.567Z,34.10
2022-08-05T14:16:16.624Z,34.05
2022-08-05T14:19:04.605Z,34.05
2022-08-05T14:22:10.245Z,34.04
2022-08-05T14:24:49.127Z,34.04
2022-08-05T14:27:32.253Z,34.02
2022-08-05T14:30:20.190Z,34.00
2022-08-05T14:33:04.955Z,33.96
2022-08-05T14:35:51.927Z,33.93
2022-08-05T14:38:36.250Z,33.92
2022-08-05T14:41:18.692Z,33.94
2022-08-05T14:44:09.743Z,33.96
2022-08-05T14:47:03.008Z,33.96
2022-08-05T14:49:56.484Z,33.95
2022-08-05T14:52:52.388Z,33.94
2022-08-05T14:55:39.429Z,33.94
2022-08-05T14:58:22.739Z,33.92
2022-08-05T15:01:05.456Z,33.89
2022-08-05T15:03:58.511Z,33.86
2022-08-05T15:06:40.626Z,33.83
2022-08-05T15:09:51.841Z,33.82
2022-08-05T15:12:24.728Z,33.83
2022-08-05T15:15:13.641Z,33.83
2022-08-05T15:17:57.380Z,33.82
2022-08-05T15:20:45.995Z,33.81
2022-08-05T15:23:28.031Z,33.80
2022-08-05T15:26:10.439Z,33.78
2022-08-05T15:28:52.846Z,33.75
2022-08-05T15:31:35.169Z,33.69
2022-08-05T15:34:31.653Z,33.62
2022-08-05T15:37:19.365Z,33.53
2022-08-05T15:41:00.017Z,33.51
2022-08-05T15:43:21.298Z,33.49
2022-08-05T15:46:03.819Z,33.45
2022-08-05T15:48:53.083Z,33.37
2022-08-05T15:52:09.706Z,33.29
2022-08-05T15:54:45.859Z,33.18
2022-08-05T15:57:34.708Z,33.10
2022-08-05T16:00:32.691Z,33.03
2022-08-05T16:03:20.322Z,32.96
2022-08-05T16:06:02.881Z,32.91
2022-08-05T16:08:46.570Z,32.84
2022-08-05T16:11:42.825Z,32.77
2022-08-05T16:14:25.516Z,32.70
2022-08-05T16:17:07.631Z,32.64
2022-08-05T16:20:04.959Z,32.59
2022-08-05T16:22:49.751Z,32.55
2022-08-05T16:25:34.023Z,32.49
2022-08-05T16:28:16.908Z,32.40
2022-08-05T16:30:59.290Z,32.27
2022-08-05T16:33:42.007Z,32.16
2022-08-05T16:36:24.438Z,32.06
2022-08-05T16:39:09.688Z,31.95
2022-08-05T16:42:14.938Z,31.83
2022-08-05T16:44:59.617Z,31.70
2022-08-05T16:47:53.454Z,31.57
2022-08-05T16:50:38.465Z,31.43
2022-08-05T16:53:32.140Z,31.31
2022-08-05T16:56:14.754Z,31.16
2022-08-05T16:58:57.870Z,30.97
2022-08-05T17:01:58.104Z,30.75
2022-08-05T17:04:42.347Z,30.55
2022-08-05T17:07:39.199Z,30.36
2022-08-05T17:10:26.455Z,30.20
2022-08-05T17:13:16.923Z,30.06
2022-08-05T17:16:26.455Z,29.93
2022-08-05T17:19:02.310Z,29.79
2022-08-05T17:21:51.478Z,29.66
2022-08-05T17:24:38.738Z,29.49
2022-08-05T17:27:24.587Z,29.37
2022-08-05T17:30:18.721Z,29.25
2022-08-05T17:33:10.135Z,29.11
2022-08-05T17:36:08.453Z,28.96
2022-08-05T17:38:52.122Z,28.81
2022-08-05T17:42:18.861Z,28.67
2022-08-05T17:44:36.377Z,28.46
2022-08-05T17:47:22.295Z,28.31
2022-08-05T17:50:10.614Z,28.18
2022-08-05T17:52:55.049Z,28.04
2022-08-05T17:55:40.056Z,27.90
2022-08-05T17:58:32.532Z,27.73
2022-08-05T18:01:15.110Z,27.58
2022-08-05T18:04:03.752Z,27.44
2022-08-05T18:06:46.768Z,27.29
2022-08-05T18:09:59.881Z,27.17
2022-08-05T18:12:34.931Z,27.05
2022-08-05T18:15:17.032Z,26.96
2022-08-05T18:18:03.563Z,26.88
2022-08-05T18:20:48.092Z,26.80
2022-08-05T18:23:45.827Z,26.72
2022-08-05T18:26:32.143Z,26.64
2022-08-05T18:29:15.181Z,26.57
2022-08-05T18:31:58.921Z,26.52
2022-08-05T18:34:42.913Z,26.47
2022-08-05T18:37:34.278Z,26.41
2022-08-05T18:40:31.766Z,26.35
2022-08-05T18:43:24.700Z,26.32
2022-08-05T18:46:13.496Z,26.29
2022-08-05T18:48:55.867Z,26.26
2022-08-05T18:52:06.598Z,26.23
2022-08-05T18:54:50.500Z,26.16
2022-08-05T18:57:50.147Z,26.11
2022-08-05T19:00:35.567Z,26.03
2022-08-05T19:03:18.487Z,25.95
2022-08-05T19:06:21.705Z,25.88
2022-08-05T19:09:04.502Z,25.83
2022-08-05T19:12:00.346Z,25.79
2022-08-05T19:15:00.899Z,25.75
2022-08-05T19:17:59.445Z,25.70
2022-08-05T19:20:50.282Z,25.61
2022-08-05T19:24:06.211Z,25.53
2022-08-05T19:26:54.702Z,25.46
2022-08-05T19:29:38.982Z,25.38
2022-08-05T19:32:22.354Z,25.33
2022-08-05T19:35:09.910Z,25.28
2022-08-05T19:38:06.289Z,25.26
2022-08-05T19:40:50.631Z,25.25
2022-08-05T19:44:06.192Z,25.22
2022-08-05T19:46:39.248Z,25.19
2022-08-05T19:49:23.399Z,25.15
2022-08-05T19:52:30.717Z,25.07
2022-08-05T19:56:14.578Z,24.96
2022-08-05T19:58:29.401Z,24.86
2022-08-05T20:01:13.791Z,24.78
2022-08-05T20:03:56.278Z,24.71
2022-08-05T20:06:45.863Z,24.65
2022-08-05T20:09:28.978Z,24.62
2022-08-05T20:12:31.867Z,24.59
2022-08-05T20:15:14.991Z,24.57
2022-08-05T20:18:09.772Z,24.54
2022-08-05T20:20:55.360Z,24.46
2022-08-05T20:23:51.199Z,24.33
2022-08-05T20:26:36.697Z,24.17
2022-08-05T20:29:27.494Z,24.06
2022-08-05T20:32:10.321Z,23.98
2022-08-05T20:34:55.322Z,23.90
2022-08-05T20:38:05.759Z,23.82
2022-08-05T20:40:39.637Z,23.75
2022-08-05T20:43:57.901Z,23.67
2022-08-05T20:46:27.291Z,23.59
2022-08-05T20:49:09.287Z,23.51
2022-08-05T20:51:57.534Z,23.44
2022-08-05T20:54:43.610Z,23.37
2022-08-05T20:57:44.241Z,23.30
2022-08-05T21:00:51.862Z,23.25
2022-08-05T21:03:28.735Z,23.19
2022-08-05T21:06:28.792Z,23.14
2022-08-05T21:09:11.576Z,23.08
2022-08-05T21:12:09.121Z,23.01
2022-08-05T21:14:58.044Z,22.91
2022-08-05T21:17:40.712Z,22.85
2022-08-05T21:20:33.537Z,22.78
2022-08-05T21:23:16.791Z,22.71
2022-08-05T21:25:59.406Z,22.64
2022-08-05T21:28:48.020Z,22.60
2022-08-05T21:31:41.579Z,22.55
2022-08-05T21:34:23.832Z,22.50
2022-08-05T21:37:08.334Z,22.45
2022-08-05T21:39:52.739Z,22.38
2022-08-05T21:42:44.196Z,22.36
2022-08-05T21:45:56.607Z,22.36
2022-08-05T21:48:35.362Z,22.35
2022-08-05T21:52:16.727Z,22.34
2022-08-05T21:54:30.858Z,22.32
2022-08-05T21:57:31.456Z,22.29
2022-08-05T22:00:14.845Z,22.26
2022-08-05T22:02:56.793Z,22.24
2022-08-05T22:05:48.811Z,22.22
2022-08-05T22:08:31.233Z,22.19
2022-08-05T22:11:15.658Z,22.16
2022-08-05T22:14:06.507Z,22.14
2022-08-05T22:17:04.845Z,22.11
2022-08-05T22:20:00.579Z,22.08
2022-08-05T22:23:16.972Z,22.02
2022-08-05T22:26:22.552Z,21.98
2022-08-05T22:29:06.966Z,21.94
2022-08-05T22:31:55.346Z,21.91
2022-08-05T22:34:41.550Z,21.90
2022-08-05T22:37:23.494Z,21.87
2022-08-05T22:40:25.514Z,21.84
2022-08-05T22:43:07.354Z,21.82
2022-08-05T22:45:50.741Z,21.81
2022-08-05T22:48:33.097Z,21.81
2022-08-05T22:51:23.216Z,21.81
2022-08-05T22:54:19.216Z,21.82
2022-08-05T22:57:06.998Z,21.82
2022-08-05T22:59:54.165Z,21.82
2022-08-05T23:02:40.044Z,21.82
2022-08-05T23:05:29.012Z,21.81
2022-08-05T23:08:17.926Z,21.79
2022-08-05T23:10:59.766Z,21.78
2022-08-05T23:13:42.433Z,21.74
2022-08-05T23:16:44.297Z,21.71
2022-08-05T23:19:38.475Z,21.69
2022-08-05T23:22:28.876Z,21.67
2022-08-05T23:25:11.373Z,21.65
2022-08-05T23:28:00.335Z,21.64
2022-08-05T23:30:43.891Z,21.61
2022-08-05T23:34:04.794Z,21.57
2022-08-05T23:36:39.744Z,21.53
2022-08-05T23:39:32.521Z,21.50
2022-08-05T23:42:29.365Z,21.46
2022-08-05T23:45:13.890Z,21.44
2022-08-05T23:47:59.499Z,21.40
2022-08-05T23:50:46.580Z,21.38
2022-08-05T23:53:46.402Z,21.34
2022-08-05T23:56:29.110Z,21.31
2022-08-05T23:59:11.211Z,21.29
